createdAt,value
2023-04-10T00:00:49.895Z,98334.84
2023-04-10T00:03:19.399Z,98334.06
2023-04-10T00:05:47.745Z,98340.09
2023-04-10T00:08:15.825Z,98332.28
2023-04-10T00:10:44.018Z,98331.38
2023-04-10T00:13:12.182Z,98332.13
2023-04-10T00:15:40.226Z,98325.78
2023-04-10T00:18:09.838Z,98325.00
2023-04-10T00:20:38.031Z,98325.97
2023-04-10T00:23:06.253Z,98326.75
2023-04-10T00:25:34.376Z,98330.97
2023-04-10T00:28:02.526Z,98323.13
2023-04-10T00:30:30.969Z,98329.19
2023-04-10T00:32:59.136Z,98322.28
2023-04-10T00:35:28.657Z,98327.47
2023-04-10T00:37:57.487Z,98330.97
2023-04-10T00:40:25.808Z,98322.28
2023-04-10T00:42:54.007Z,98333.81
2023-04-10T00:45:22.305Z,98329.44
2023-04-10T00:47:50.495Z,98320.66
2023-04-10T00:50:18.854Z,98328.34
2023-04-10T00:52:49.279Z,98324.06
2023-04-10T00:55:17.572Z,98325.13
2023-04-10T00:57:47.344Z,98318.97
2023-04-10T01:00:16.656Z,98322.44
2023-04-10T01:02:45.062Z,98322.50
2023-04-10T01:05:14.756Z,98322.50
2023-04-10T01:07:59.774Z,98310.38
2023-04-10T01:10:33.896Z,98319.22
2023-04-10T01:13:12.581Z,98318.38
2023-04-10T01:15:47.832Z,98308.78
2023-04-10T01:18:24.085Z,98321.75
2023-04-10T01:20:52.068Z,98315.56
2023-04-10T01:23:46.974Z,98307.63
2023-04-10T01:26:17.481Z,98313.84
2023-04-10T01:29:01.720Z,98310.38
2023-04-10T01:31:37.805Z,98309.69
2023-04-10T01:34:10.605Z,98315.00
2023-04-10T01:36:49.108Z,98309.75
2023-04-10T01:39:20.412Z,98313.63
2023-04-10T01:41:51.889Z,98312.75
2023-04-10T01:44:28.281Z,98309.38
2023-04-10T01:46:58.246Z,98310.28
2023-04-10T01:49:29.637Z,98306.84
2023-04-10T01:52:07.040Z,98307.84
2023-04-10T01:54:36.688Z,98312.44
2023-04-10T01:57:06.563Z,98310.81
2023-04-10T01:59:52.410Z,98305.28
2023-04-10T02:02:21.112Z,98310.75
2023-04-10T02:04:51.759Z,98310.75
2023-04-10T02:07:26.676Z,98309.09
2023-04-10T02:10:01.237Z,98308.59
2023-04-10T02:12:32.074Z,98313.41
2023-04-10T02:15:03.899Z,98310.22
2023-04-10T02:17:33.033Z,98312.19
2023-04-10T02:20:01.824Z,98312.22
2023-04-10T02:22:30.292Z,98315.00
2023-04-10T02:25:00.307Z,98312.38
2023-04-10T02:27:30.163Z,98311.53
2023-04-10T02:30:00.215Z,98316.91
2023-04-10T02:32:30.665Z,98317.03
2023-04-10T02:34:58.723Z,98303.28
2023-04-10T02:37:26.975Z,98304.25
2023-04-10T02:39:55.794Z,98299.97
2023-04-10T02:42:25.949Z,98305.34
2023-04-10T02:44:57.477Z,98309.88
2023-04-10T02:47:27.130Z,98304.53
2023-04-10T02:49:57.105Z,98316.81
2023-04-10T02:52:28.710Z,98307.38
2023-04-10T02:54:57.041Z,98308.28
2023-04-10T02:57:27.339Z,98310.16
2023-04-10T02:59:56.011Z,98306.91
2023-04-10T03:02:26.679Z,98302.72
2023-04-10T03:04:57.736Z,98294.88
2023-04-10T03:07:26.113Z,98298.44
2023-04-10T03:09:54.691Z,98305.44
2023-04-10T03:12:23.274Z,98308.13
2023-04-10T03:14:51.556Z,98307.50
2023-04-10T03:17:19.711Z,98306.72
2023-04-10T03:19:47.816Z,98312.84
2023-04-10T03:22:17.171Z,98315.56
2023-04-10T03:24:45.851Z,98315.56
2023-04-10T03:27:14.128Z,98312.06
2023-04-10T03:29:42.317Z,98313.03
2023-04-10T03:32:10.856Z,98316.50
2023-04-10T03:34:38.940Z,98321.72
2023-04-10T03:37:07.076Z,98315.56
2023-04-10T03:39:37.370Z,98314.78
2023-04-10T03:42:05.628Z,98324.34
2023-04-10T03:44:34.345Z,98317.41
2023-04-10T03:47:03.701Z,98313.19
2023-04-10T03:49:32.484Z,98322.81
2023-04-10T03:52:06.000Z,98310.56
2023-04-10T03:54:34.128Z,98315.09
2023-04-10T03:57:03.734Z,98310.91
2023-04-10T03:59:38.701Z,98311.03
2023-04-10T04:02:11.392Z,98320.69
2023-04-10T04:04:40.393Z,98318.16
2023-04-10T04:07:34.494Z,98313.75
2023-04-10T04:10:14.237Z,98323.19
2023-04-10T04:13:03.213Z,98318.84
2023-04-10T04:16:04.538Z,98324.88
2023-04-10T04:18:47.329Z,98320.53
2023-04-10T04:21:41.474Z,98325.94
2023-04-10T04:24:32.810Z,98331.06
2023-04-10T04:27:14.822Z,98323.28
2023-04-10T04:30:03.401Z,98324.97
2023-04-10T04:32:56.105Z,98323.28
2023-04-10T04:35:42.690Z,98326.72
2023-04-10T04:38:30.433Z,98326.66
2023-04-10T04:41:21.460Z,98324.88
2023-04-10T04:44:08.045Z,98324.06
2023-04-10T04:47:00.669Z,98325.84
2023-04-10T04:49:40.895Z,98322.44
2023-04-10T04:52:28.458Z,98324.16
2023-04-10T04:55:08.747Z,98326.59
2023-04-10T04:57:58.382Z,98330.84
2023-04-10T05:00:42.759Z,98332.50
2023-04-10T05:03:34.162Z,98341.13
2023-04-10T05:06:24.676Z,98341.13
2023-04-10T05:09:11.683Z,98343.72
2023-04-10T05:12:12.155Z,98336.72
2023-04-10T05:15:03.580Z,98339.06
2023-04-10T05:17:42.958Z,98339.75
2023-04-10T05:20:38.970Z,98346.44
2023-04-10T05:23:21.602Z,98350.59
2023-04-10T05:26:15.976Z,98353.00
2023-04-10T05:29:07.025Z,98343.25
2023-04-10T05:31:53.633Z,98342.13
2023-04-10T05:34:41.941Z,98356.69
2023-04-10T05:37:15.153Z,98338.03
2023-04-10T05:39:55.718Z,98341.22
2023-04-10T05:42:53.839Z,98354.97
2023-04-10T05:45:54.472Z,98355.56
2023-04-10T05:48:45.738Z,98356.94
2023-04-10T05:51:42.680Z,98358.31
2023-04-10T05:54:38.446Z,98361.44
2023-04-10T05:57:27.054Z,98359.53
2023-04-10T05:59:55.138Z,98352.97
2023-04-10T06:02:42.126Z,98355.22
2023-04-10T06:05:18.390Z,98365.41
2023-04-10T06:07:47.012Z,98362.44
2023-04-10T06:10:17.469Z,98354.78
2023-04-10T06:12:46.034Z,98349.34
2023-04-10T06:15:14.888Z,98352.34
2023-04-10T06:17:44.789Z,98352.91
2023-04-10T06:20:13.674Z,98347.22
2023-04-10T06:22:41.881Z,98361.25
2023-04-10T06:25:10.913Z,98360.75
2023-04-10T06:27:40.425Z,98358.94
2023-04-10T06:30:11.731Z,98354.94
2023-04-10T06:32:39.891Z,98354.09
2023-04-10T06:35:09.024Z,98348.97
2023-04-10T06:37:37.159Z,98356.94
2023-04-10T06:40:08.188Z,98360.69
2023-04-10T06:42:36.550Z,98356.28
2023-04-10T06:45:17.662Z,98358.19
2023-04-10T06:47:45.790Z,98358.00
2023-04-10T06:50:13.959Z,98358.22
2023-04-10T06:52:42.026Z,98359.63
2023-04-10T06:55:10.906Z,98353.44
2023-04-10T06:57:38.927Z,98358.44
2023-04-10T07:00:08.375Z,98358.81
2023-04-10T07:02:37.890Z,98349.38
2023-04-10T07:05:06.755Z,98350.72
2023-04-10T07:07:34.966Z,98343.47
2023-04-10T07:10:02.995Z,98349.09
2023-04-10T07:12:31.233Z,98347.31
2023-04-10T07:14:59.503Z,98348.50
2023-04-10T07:17:27.772Z,98336.34
2023-04-10T07:19:57.319Z,98340.69
2023-04-10T07:22:25.404Z,98342.53
2023-04-10T07:24:53.584Z,98343.13
2023-04-10T07:27:23.260Z,98336.94
2023-04-10T07:29:51.462Z,98334.31
2023-04-10T07:32:19.703Z,98334.13
2023-04-10T07:34:48.433Z,98331.09
2023-04-10T07:37:18.180Z,98324.25
2023-04-10T07:39:46.494Z,98315.59
2023-04-10T07:42:14.852Z,98314.50
2023-04-10T07:44:42.958Z,98316.56
2023-04-10T07:47:11.598Z,98310.06
2023-04-10T07:49:39.720Z,98318.44
2023-04-10T07:52:07.907Z,98316.97
2023-04-10T07:54:37.673Z,98316.28
2023-04-10T07:57:05.787Z,98315.75
2023-04-10T07:59:33.917Z,98321.28
2023-04-10T08:02:02.206Z,98315.94
2023-04-10T08:04:30.687Z,98314.69
2023-04-10T08:06:58.998Z,98316.09
2023-04-10T08:09:27.126Z,98306.22
2023-04-10T08:11:58.155Z,98308.28
2023-04-10T08:14:26.313Z,98313.31
2023-04-10T08:16:54.656Z,98307.50
2023-04-10T08:19:22.897Z,98310.97
2023-04-10T08:21:51.046Z,98305.88
2023-04-10T08:24:20.258Z,98307.38
2023-04-10T08:26:48.488Z,98310.75
2023-04-10T08:29:17.985Z,98303.44
2023-04-10T08:31:46.021Z,98300.75
2023-04-10T08:34:14.222Z,98301.00
2023-04-10T08:36:42.384Z,98311.47
2023-04-10T08:39:10.627Z,98302.19
2023-04-10T08:41:42.114Z,98302.63
2023-04-10T08:44:10.304Z,98298.38
2023-04-10T08:46:43.622Z,98298.50
2023-04-10T08:49:16.473Z,98287.44
2023-04-10T08:51:49.076Z,98289.19
2023-04-10T08:54:20.815Z,98286.91
2023-04-10T08:56:52.367Z,98284.44
2023-04-10T08:59:20.900Z,98282.75
2023-04-10T09:01:50.685Z,98284.81
2023-04-10T09:04:19.040Z,98278.28
2023-04-10T09:06:48.309Z,98272.75
2023-04-10T09:09:16.543Z,98275.63
2023-04-10T09:12:02.657Z,98274.31
2023-04-10T09:14:32.110Z,98269.66
2023-04-10T09:17:16.308Z,98273.56
2023-04-10T09:19:45.793Z,98266.78
2023-04-10T09:22:14.204Z,98262.78
2023-04-10T09:24:43.895Z,98251.81
2023-04-10T09:27:12.511Z,98264.56
2023-04-10T09:29:43.427Z,98260.22
2023-04-10T09:32:11.698Z,98270.69
2023-04-10T09:34:57.255Z,98259.94
2023-04-10T09:37:32.736Z,98255.16
2023-04-10T09:40:01.082Z,98262.28
2023-04-10T09:42:33.773Z,98258.47
2023-04-10T09:45:02.638Z,98252.94
2023-04-10T09:47:31.165Z,98253.81
2023-04-10T09:50:02.164Z,98254.06
2023-04-10T09:52:31.238Z,98245.78
2023-04-10T09:55:01.082Z,98245.28
2023-04-10T09:57:31.022Z,98244.31
2023-04-10T10:00:01.269Z,98233.28
2023-04-10T10:02:39.130Z,98230.97
2023-04-10T10:05:10.301Z,98227.75
2023-04-10T10:07:39.957Z,98229.53
2023-04-10T10:10:09.418Z,98232.84
2023-04-10T10:12:45.067Z,98226.94
2023-04-10T10:15:19.184Z,98221.38
2023-04-10T10:17:57.522Z,98219.59
2023-04-10T10:20:28.247Z,98218.69
2023-04-10T10:22:57.613Z,98219.91
2023-04-10T10:25:26.426Z,98232.34
2023-04-10T10:27:55.512Z,98231.75
2023-04-10T10:30:30.076Z,98222.66
2023-04-10T10:33:00.431Z,98234.19
2023-04-10T10:35:32.737Z,98228.81
2023-04-10T10:38:02.391Z,98228.56
2023-04-10T10:40:34.099Z,98217.88
2023-04-10T10:43:10.317Z,98216.00
2023-04-10T10:45:45.431Z,98207.84
2023-04-10T10:48:13.547Z,98210.13
2023-04-10T10:50:59.518Z,98203.97
2023-04-10T10:53:35.630Z,98193.16
2023-04-10T10:56:35.088Z,98200.66
2023-04-10T10:59:03.468Z,98193.69
2023-04-10T11:01:31.726Z,98190.81
2023-04-10T11:04:01.456Z,98182.78
2023-04-10T11:06:53.115Z,98175.25
2023-04-10T11:09:59.694Z,98163.88
2023-04-10T11:12:30.588Z,98173.91
2023-04-10T11:15:00.712Z,98176.28
2023-04-10T11:17:48.788Z,98167.38
2023-04-10T11:20:17.294Z,98162.91
2023-04-10T11:23:12.898Z,98160.00
2023-04-10T11:25:49.540Z,98167.88
2023-04-10T11:28:40.002Z,98165.00
2023-04-10T11:31:23.155Z,98153.66
2023-04-10T11:34:01.612Z,98155.22
2023-04-10T11:36:29.976Z,98152.41
2023-04-10T11:39:00.657Z,98143.91
2023-04-10T11:41:30.938Z,98138.75
2023-04-10T11:43:59.633Z,98136.22
2023-04-10T11:46:28.122Z,98125.56
2023-04-10T11:48:58.560Z,98136.88
2023-04-10T11:51:28.459Z,98123.50
2023-04-10T11:54:09.227Z,98134.09
2023-04-10T11:56:38.536Z,98122.28
2023-04-10T11:59:10.828Z,98115.94
2023-04-10T12:01:42.115Z,98121.31
2023-04-10T12:04:18.427Z,98115.31
2023-04-10T12:06:47.372Z,98118.50
2023-04-10T12:09:18.152Z,98111.69
2023-04-10T12:11:52.037Z,98119.91
2023-04-10T12:14:21.733Z,98126.50
2023-04-10T12:16:50.523Z,98110.59
2023-04-10T12:19:19.428Z,98113.72
2023-04-10T12:21:47.808Z,98120.69
2023-04-10T12:24:44.509Z,98108.56
2023-04-10T12:27:19.225Z,98100.13
2023-04-10T12:29:48.063Z,98097.47
2023-04-10T12:32:16.720Z,98084.19
2023-04-10T12:34:51.512Z,98087.00
2023-04-10T12:37:20.126Z,98081.56
2023-04-10T12:39:50.003Z,98072.31
2023-04-10T12:42:20.934Z,98066.66
2023-04-10T12:44:53.925Z,98066.72
2023-04-10T12:47:22.549Z,98066.09
2023-04-10T12:50:11.430Z,98046.94
2023-04-10T12:52:44.311Z,98051.50
2023-04-10T12:55:16.032Z,98054.16
2023-04-10T12:57:46.149Z,98045.19
2023-04-10T13:00:17.153Z,98040.56
2023-04-10T13:02:46.331Z,98059.81
2023-04-10T13:05:14.907Z,98051.03
2023-04-10T13:07:43.301Z,98047.00
2023-04-10T13:10:11.816Z,98040.13
2023-04-10T13:12:42.181Z,98032.19
2023-04-10T13:15:11.698Z,98033.81
2023-04-10T13:17:41.283Z,98034.25
2023-04-10T13:20:13.619Z,98026.22
2023-04-10T13:22:41.852Z,98016.91
2023-04-10T13:25:10.595Z,98022.66
2023-04-10T13:27:38.889Z,98011.94
2023-04-10T13:30:09.994Z,98014.66
2023-04-10T13:32:38.497Z,98006.56
2023-04-10T13:35:07.500Z,98009.03
2023-04-10T13:37:35.985Z,98000.38
2023-04-10T13:40:05.198Z,97993.22
2023-04-10T13:42:33.689Z,97992.09
2023-04-10T13:45:02.863Z,97989.25
2023-04-10T13:47:32.671Z,97992.22
2023-04-10T13:50:00.965Z,97993.56
2023-04-10T13:52:29.256Z,97978.16
2023-04-10T13:54:57.562Z,97981.16
2023-04-10T13:57:25.884Z,97975.00
2023-04-10T13:59:54.450Z,97978.91
2023-04-10T14:02:22.900Z,97969.28
2023-04-10T14:04:52.614Z,97971.41
2023-04-10T14:07:21.035Z,97970.06
2023-04-10T14:09:49.339Z,97972.91
2023-04-10T14:12:19.272Z,97974.38
2023-04-10T14:14:47.598Z,97972.47
2023-04-10T14:17:15.935Z,97961.88
2023-04-10T14:19:46.503Z,97954.72
2023-04-10T14:22:16.128Z,97963.00
2023-04-10T14:24:44.342Z,97967.97
2023-04-10T14:27:13.414Z,97958.78
2023-04-10T14:29:50.665Z,97954.31
2023-04-10T14:32:23.175Z,97971.31
2023-04-10T14:34:51.494Z,97966.22
2023-04-10T14:37:22.557Z,97963.13
2023-04-10T14:39:50.784Z,97967.63
2023-04-10T14:42:19.192Z,97959.41
2023-04-10T14:44:47.407Z,97955.06
2023-04-10T14:47:15.749Z,97949.50
2023-04-10T14:49:44.186Z,97943.03
2023-04-10T14:52:12.483Z,97956.28
2023-04-10T14:54:42.328Z,97944.44
2023-04-10T14:57:11.124Z,97940.53
2023-04-10T14:59:39.540Z,97934.44
2023-04-10T15:02:08.348Z,97933.75
2023-04-10T15:04:37.279Z,97926.81
2023-04-10T15:07:05.590Z,97933.06
2023-04-10T15:09:34.087Z,97934.44
2023-04-10T15:12:03.902Z,97922.28
2023-04-10T15:14:32.461Z,97932.81
2023-04-10T15:17:00.883Z,97928.31
2023-04-10T15:19:29.262Z,97923.88
2023-04-10T15:21:57.620Z,97915.50
2023-04-10T15:24:26.440Z,97924.34
2023-04-10T15:26:56.458Z,97920.69
2023-04-10T15:29:26.240Z,97925.19
2023-04-10T15:31:54.891Z,97917.66
2023-04-10T15:34:23.088Z,97916.72
2023-04-10T15:36:51.281Z,97911.22
2023-04-10T15:39:19.898Z,97910.38
2023-04-10T15:41:50.192Z,97900.00
2023-04-10T15:44:18.592Z,97905.59
2023-04-10T15:46:48.300Z,97904.06
2023-04-10T15:49:29.743Z,97896.44
2023-04-10T15:52:02.889Z,97896.72
2023-04-10T15:54:31.190Z,97888.25
2023-04-10T15:56:59.540Z,97881.56
2023-04-10T15:59:28.138Z,97898.59
2023-04-10T16:01:58.367Z,97896.09
2023-04-10T16:04:26.898Z,97900.19
2023-04-10T16:06:56.384Z,97894.63
2023-04-10T16:09:26.791Z,97877.59
2023-04-10T16:11:56.442Z,97886.84
2023-04-10T16:14:25.124Z,97885.34
2023-04-10T16:16:53.335Z,97877.81
2023-04-10T16:19:23.169Z,97872.47
2023-04-10T16:21:52.025Z,97868.81
2023-04-10T16:24:20.754Z,97867.72
2023-04-10T16:26:49.184Z,97865.25
2023-04-10T16:29:19.944Z,97864.69
2023-04-10T16:31:48.327Z,97870.22
2023-04-10T16:34:16.667Z,97871.47
2023-04-10T16:36:47.112Z,97852.66
2023-04-10T16:39:15.894Z,97849.78
2023-04-10T16:41:45.121Z,97865.22
2023-04-10T16:44:13.666Z,97850.22
2023-04-10T16:46:42.055Z,97862.13
2023-04-10T16:49:10.633Z,97859.47
2023-04-10T16:51:38.997Z,97856.72
2023-04-10T16:54:09.220Z,97859.72
2023-04-10T16:56:37.549Z,97861.22
2023-04-10T16:59:06.031Z,97858.34
2023-04-10T17:01:40.022Z,97853.44
2023-04-10T17:04:09.612Z,97857.59
2023-04-10T17:06:38.250Z,97854.81
2023-04-10T17:09:06.797Z,97848.19
2023-04-10T17:11:36.565Z,97862.47
2023-04-10T17:14:06.217Z,97849.41
2023-04-10T17:16:34.857Z,97861.34
2023-04-10T17:19:03.364Z,97850.03
2023-04-10T17:21:31.791Z,97856.78
2023-04-10T17:24:00.267Z,97853.50
2023-04-10T17:26:28.856Z,97849.09
2023-04-10T17:28:58.804Z,97843.44
2023-04-10T17:31:27.267Z,97836.66
2023-04-10T17:33:55.687Z,97849.03
2023-04-10T17:36:24.775Z,97844.84
2023-04-10T17:38:54.173Z,97840.69
2023-04-10T17:41:22.906Z,97836.50
2023-04-10T17:43:51.788Z,97848.50
2023-04-10T17:46:21.944Z,97844.81
2023-04-10T17:48:50.502Z,97845.34
2023-04-10T17:51:18.894Z,97855.00
2023-04-10T17:53:47.583Z,97859.34
2023-04-10T17:56:21.362Z,97857.81
2023-04-10T17:58:49.995Z,97847.53
2023-04-10T18:01:29.967Z,97858.56
2023-04-10T18:03:59.340Z,97867.97
2023-04-10T18:06:28.126Z,97854.63
2023-04-10T18:08:57.522Z,97865.88
2023-04-10T18:11:26.298Z,97862.72
2023-04-10T18:13:55.163Z,97856.16
2023-04-10T18:16:24.154Z,97850.75
2023-04-10T18:18:54.867Z,97852.50
2023-04-10T18:21:23.899Z,97843.69
2023-04-10T18:23:52.559Z,97852.88
2023-04-10T18:26:21.589Z,97845.59
2023-04-10T18:28:50.727Z,97854.47
2023-04-10T18:31:20.177Z,97851.50
2023-04-10T18:34:03.711Z,97853.53
2023-04-10T18:36:37.764Z,97845.47
2023-04-10T18:39:06.350Z,97851.13
2023-04-10T18:41:34.782Z,97847.34
2023-04-10T18:44:05.383Z,97850.25
2023-04-10T18:46:35.338Z,97855.84
2023-04-10T18:49:04.215Z,97856.25
2023-04-10T18:51:35.495Z,97849.78
2023-04-10T18:54:06.058Z,97858.78
2023-04-10T18:56:36.131Z,97845.53
2023-04-10T18:59:05.824Z,97858.66
2023-04-10T19:01:35.395Z,97852.09
2023-04-10T19:04:05.250Z,97865.59
2023-04-10T19:06:35.800Z,97853.75
2023-04-10T19:09:05.683Z,97859.25
2023-04-10T19:11:35.089Z,97876.06
2023-04-10T19:14:03.451Z,97870.66
2023-04-10T19:19:03.946Z,97866.78
2023-04-10T19:21:36.038Z,97863.94
2023-04-10T19:24:07.079Z,97867.78
2023-04-10T19:26:36.556Z,97875.06
2023-04-10T19:29:05.818Z,97880.59
2023-04-10T19:31:34.460Z,97872.25
2023-04-10T19:34:09.471Z,97885.50
2023-04-10T19:36:39.536Z,97889.97
2023-04-10T19:39:10.087Z,97876.47
2023-04-10T19:41:42.576Z,97880.88
2023-04-10T19:44:11.486Z,97870.63
2023-04-10T19:46:40.135Z,97886.56
2023-04-10T19:49:08.768Z,97865.75
2023-04-10T19:51:37.210Z,97870.50
2023-04-10T19:54:06.024Z,97875.00
2023-04-10T19:56:37.973Z,97876.16
2023-04-10T19:59:07.205Z,97861.00
2023-04-10T20:01:36.224Z,97867.16
2023-04-10T20:04:05.577Z,97868.22
2023-04-10T20:06:34.224Z,97860.81
2023-04-10T20:09:02.836Z,97861.88
2023-04-10T20:11:33.974Z,97851.63
2023-04-10T20:14:04.373Z,97867.16
2023-04-10T20:16:33.929Z,97854.44
2023-04-10T20:19:02.786Z,97854.56
2023-04-10T20:21:31.475Z,97868.31
2023-04-10T20:24:00.124Z,97855.69
2023-04-10T20:26:41.492Z,97862.91
2023-04-10T20:29:11.510Z,97863.88
2023-04-10T20:31:41.869Z,97860.44
2023-04-10T20:34:16.659Z,97860.63
2023-04-10T20:36:48.533Z,97851.59
2023-04-10T20:39:18.585Z,97857.69
2023-04-10T20:41:55.375Z,97853.72
2023-04-10T20:44:25.576Z,97866.84
2023-04-10T20:46:53.965Z,97860.03
2023-04-10T20:49:22.869Z,97859.44
2023-04-10T20:51:51.306Z,97856.13
2023-04-10T20:54:23.268Z,97840.94
2023-04-10T20:56:51.513Z,97855.00
2023-04-10T20:59:19.930Z,97863.66
2023-04-10T21:01:49.806Z,97869.03
2023-04-10T21:04:17.997Z,97866.47
2023-04-10T21:06:46.262Z,97848.50
2023-04-10T21:09:14.716Z,97860.69
2023-04-10T21:11:43.036Z,97857.47
2023-04-10T21:14:11.397Z,97846.34
2023-04-10T21:16:42.530Z,97854.19
2023-04-10T21:19:12.831Z,97846.56
2023-04-10T21:21:41.155Z,97845.00
2023-04-10T21:24:09.754Z,97842.63
2023-04-10T21:26:38.126Z,97853.38
2023-04-10T21:29:06.549Z,97863.06
2023-04-10T21:31:35.150Z,97846.03
2023-04-10T21:34:03.742Z,97848.97
2023-04-10T21:36:33.743Z,97843.88
2023-04-10T21:39:02.226Z,97842.22
2023-04-10T21:41:30.588Z,97851.88
2023-04-10T21:44:00.487Z,97844.91
2023-04-10T21:46:29.020Z,97837.97
2023-04-10T21:48:58.098Z,97850.06
2023-04-10T21:51:27.677Z,97835.34
2023-04-10T21:53:57.431Z,97821.53
2023-04-10T21:56:26.028Z,97836.34
2023-04-10T21:58:54.658Z,97835.78
2023-04-10T22:01:23.363Z,97815.00
2023-04-10T22:03:52.107Z,97829.78
2023-04-10T22:06:20.406Z,97818.63
2023-04-10T22:08:48.767Z,97830.25
2023-04-10T22:11:18.400Z,97826.03
2023-04-10T22:13:46.729Z,97817.63
2023-04-10T22:16:15.078Z,97808.16
2023-04-10T22:18:43.383Z,97811.66
2023-04-10T22:21:13.516Z,97821.03
2023-04-10T22:23:41.971Z,97817.56
2023-04-10T22:26:10.490Z,97798.75
2023-04-10T22:28:40.378Z,97804.69
2023-04-10T22:31:16.556Z,97803.75
2023-04-10T22:33:45.045Z,97802.03
2023-04-10T22:36:14.244Z,97808.25
2023-04-10T22:38:42.644Z,97808.34
2023-04-10T22:41:11.071Z,97804.94
2023-04-10T22:43:40.743Z,97809.38
2023-04-10T22:46:09.043Z,97809.44
2023-04-10T22:48:37.514Z,97805.28
2023-04-10T22:51:11.684Z,97808.16
2023-04-10T22:53:40.246Z,97809.97
2023-04-10T22:56:10.532Z,97802.38
2023-04-10T22:58:40.870Z,97813.78
2023-04-10T23:01:09.499Z,97800.94
2023-04-10T23:03:37.822Z,97805.31
2023-04-10T23:06:06.524Z,97818.28
2023-04-10T23:08:35.065Z,97810.66
2023-04-10T23:11:03.819Z,97789.22
2023-04-10T23:13:32.159Z,97802.25
2023-04-10T23:16:02.347Z,97795.41
2023-04-10T23:18:30.730Z,97797.22
2023-04-10T23:20:59.008Z,97786.19
2023-04-10T23:23:27.588Z,97788.94
2023-04-10T23:25:59.197Z,97795.69
2023-04-10T23:28:27.853Z,97783.69
2023-04-10T23:30:56.112Z,97801.22
2023-04-10T23:33:26.093Z,97776.06
2023-04-10T23:35:54.747Z,97788.16
2023-04-10T23:38:23.689Z,97773.59
2023-04-10T23:40:54.705Z,97776.78
2023-04-10T23:43:22.928Z,97773.41
2023-04-10T23:45:51.366Z,97775.28
2023-04-10T23:48:19.720Z,97763.19
2023-04-10T23:50:49.484Z,97764.09
2023-04-10T23:53:18.482Z,97766.78
2023-04-10T23:55:46.928Z,97757.41
2023-04-10T23:58:15.632Z,97767.88
